sensor_id;sensor_type;location;lat;lon;timestamp;P1;durP1;ratioP1;P2;durP2;ratioP2
2850;SDS011;1433;49.976;8.342;2023-08-12T00:01:28;5.70;;;5.20;;
2850;SDS011;1433;49.976;8.342;2023-08-12T00:03:55;6.40;;;5.90;;
2850;SDS011;1433;49.976;8.342;2023-08-12T00:06:22;5.93;;;5.37;;
2850;SDS011;1433;49.976;8.342;2023-08-12T00:08:48;7.20;;;5.50;;
2850;SDS011;1433;49.976;8.342;2023-08-12T00:11:14;8.50;;;5.87;;
2850;SDS011;1433;49.976;8.342;2023-08-12T00:13:40;10.53;;;6.27;;
2850;SDS011;1433;49.976;8.342;2023-08-12T00:16:06;5.93;;;5.13;;
2850;SDS011;1433;49.976;8.342;2023-08-12T00:18:33;6.27;;;5.67;;
2850;SDS011;1433;49.976;8.342;2023-08-12T00:21:01;6.77;;;5.83;;
2850;SDS011;1433;49.976;8.342;2023-08-12T00:23:27;8.60;;;6.30;;
2850;SDS011;1433;49.976;8.342;2023-08-12T00:25:53;6.30;;;4.87;;
2850;SDS011;1433;49.976;8.342;2023-08-12T00:28:23;6.37;;;5.77;;
2850;SDS011;1433;49.976;8.342;2023-08-12T00:30:49;5.70;;;4.87;;
2850;SDS011;1433;49.976;8.342;2023-08-12T00:33:16;5.50;;;4.97;;
2850;SDS011;1433;49.976;8.342;2023-08-12T00:35:42;7.50;;;6.70;;
2850;SDS011;1433;49.976;8.342;2023-08-12T00:38:08;6.90;;;5.97;;
2850;SDS011;1433;49.976;8.342;2023-08-12T00:40:34;6.17;;;5.57;;
2850;SDS011;1433;49.976;8.342;2023-08-12T00:43:00;6.97;;;6.20;;
2850;SDS011;1433;49.976;8.342;2023-08-12T00:45:26;5.80;;;5.20;;
2850;SDS011;1433;49.976;8.342;2023-08-12T00:47:53;7.17;;;5.33;;
2850;SDS011;1433;49.976;8.342;2023-08-12T00:50:19;8.13;;;6.30;;
2850;SDS011;1433;49.976;8.342;2023-08-12T00:52:46;6.60;;;5.33;;
2850;SDS011;1433;49.976;8.342;2023-08-12T00:55:12;5.70;;;5.10;;
2850;SDS011;1433;49.976;8.342;2023-08-12T00:57:39;9.10;;;6.40;;
2850;SDS011;1433;49.976;8.342;2023-08-12T01:00:05;5.80;;;5.20;;
2850;SDS011;1433;49.976;8.342;2023-08-12T01:02:33;6.63;;;6.10;;
2850;SDS011;1433;49.976;8.342;2023-08-12T01:05:00;6.33;;;5.30;;
2850;SDS011;1433;49.976;8.342;2023-08-12T01:07:26;8.40;;;5.20;;
2850;SDS011;1433;49.976;8.342;2023-08-12T01:09:52;6.40;;;5.47;;
2850;SDS011;1433;49.976;8.342;2023-08-12T01:17:37;7.27;;;6.63;;
2850;SDS011;1433;49.976;8.342;2023-08-12T01:20:06;10.93;;;6.30;;
2850;SDS011;1433;49.976;8.342;2023-08-12T01:22:38;7.80;;;7.07;;
2850;SDS011;1433;49.976;8.342;2023-08-12T01:25:07;6.50;;;5.80;;
2850;SDS011;1433;49.976;8.342;2023-08-12T01:27:35;8.97;;;6.67;;
2850;SDS011;1433;49.976;8.342;2023-08-12T01:30:02;13.60;;;6.90;;
2850;SDS011;1433;49.976;8.342;2023-08-12T01:32:42;8.87;;;6.40;;
2850;SDS011;1433;49.976;8.342;2023-08-12T01:35:18;6.43;;;5.80;;
2850;SDS011;1433;49.976;8.342;2023-08-12T01:38:02;7.23;;;6.37;;
2850;SDS011;1433;49.976;8.342;2023-08-12T01:40:31;7.30;;;6.07;;
2850;SDS011;1433;49.976;8.342;2023-08-12T01:42:59;6.33;;;5.60;;
2850;SDS011;1433;49.976;8.342;2023-08-12T01:45:26;7.50;;;6.80;;
2850;SDS011;1433;49.976;8.342;2023-08-12T01:47:53;8.63;;;6.40;;
2850;SDS011;1433;49.976;8.342;2023-08-12T01:50:19;6.30;;;5.67;;
2850;SDS011;1433;49.976;8.342;2023-08-12T01:52:47;7.70;;;6.90;;
2850;SDS011;1433;49.976;8.342;2023-08-12T01:55:13;9.43;;;7.23;;
2850;SDS011;1433;49.976;8.342;2023-08-12T01:57:39;8.00;;;6.50;;
2850;SDS011;1433;49.976;8.342;2023-08-12T02:00:06;8.13;;;6.80;;
2850;SDS011;1433;49.976;8.342;2023-08-12T02:02:42;7.70;;;6.90;;
2850;SDS011;1433;49.976;8.342;2023-08-12T02:05:10;8.33;;;6.80;;
2850;SDS011;1433;49.976;8.342;2023-08-12T02:07:37;11.23;;;6.00;;
2850;SDS011;1433;49.976;8.342;2023-08-12T02:10:03;9.73;;;6.10;;
2850;SDS011;1433;49.976;8.342;2023-08-12T02:12:31;7.83;;;6.77;;
2850;SDS011;1433;49.976;8.342;2023-08-12T02:14:57;7.13;;;6.50;;
2850;SDS011;1433;49.976;8.342;2023-08-12T02:17:23;10.93;;;7.37;;
2850;SDS011;1433;49.976;8.342;2023-08-12T02:19:51;9.93;;;6.67;;
2850;SDS011;1433;49.976;8.342;2023-08-12T02:22:17;7.73;;;7.00;;
2850;SDS011;1433;49.976;8.342;2023-08-12T02:24:43;7.80;;;7.00;;
2850;SDS011;1433;49.976;8.342;2023-08-12T02:27:09;6.57;;;5.90;;
2850;SDS011;1433;49.976;8.342;2023-08-12T02:29:35;6.97;;;6.20;;
2850;SDS011;1433;49.976;8.342;2023-08-12T02:32:02;8.33;;;6.50;;
2850;SDS011;1433;49.976;8.342;2023-08-12T02:34:28;15.83;;;6.37;;
2850;SDS011;1433;49.976;8.342;2023-08-12T02:36:54;7.40;;;6.70;;
2850;SDS011;1433;49.976;8.342;2023-08-12T02:39:21;8.37;;;7.43;;
2850;SDS011;1433;49.976;8.342;2023-08-12T02:41:47;8.60;;;6.30;;
2850;SDS011;1433;49.976;8.342;2023-08-12T02:44:13;7.87;;;6.83;;
2850;SDS011;1433;49.976;8.342;2023-08-12T02:46:39;7.70;;;6.90;;
2850;SDS011;1433;49.976;8.342;2023-08-12T02:49:05;6.77;;;6.07;;
2850;SDS011;1433;49.976;8.342;2023-08-12T02:51:31;7.23;;;5.40;;
2850;SDS011;1433;49.976;8.342;2023-08-12T02:53:57;7.40;;;5.60;;
2850;SDS011;1433;49.976;8.342;2023-08-12T02:56:23;5.97;;;5.20;;
2850;SDS011;1433;49.976;8.342;2023-08-12T02:58:49;9.80;;;5.00;;
2850;SDS011;1433;49.976;8.342;2023-08-12T03:01:15;6.93;;;5.33;;
2850;SDS011;1433;49.976;8.342;2023-08-12T03:03:42;5.17;;;4.67;;
2850;SDS011;1433;49.976;8.342;2023-08-12T03:06:08;6.13;;;5.40;;
2850;SDS011;1433;49.976;8.342;2023-08-12T03:08:34;7.40;;;5.40;;
2850;SDS011;1433;49.976;8.342;2023-08-12T03:11:01;5.70;;;5.20;;
2850;SDS011;1433;49.976;8.342;2023-08-12T03:13:29;5.57;;;4.87;;
2850;SDS011;1433;49.976;8.342;2023-08-12T03:15:56;6.70;;;5.40;;
2850;SDS011;1433;49.976;8.342;2023-08-12T03:18:23;7.10;;;6.50;;
2850;SDS011;1433;49.976;8.342;2023-08-12T03:20:49;6.23;;;5.70;;
2850;SDS011;1433;49.976;8.342;2023-08-12T03:23:16;7.77;;;5.97;;
2850;SDS011;1433;49.976;8.342;2023-08-12T03:25:42;7.33;;;6.67;;
2850;SDS011;1433;49.976;8.342;2023-08-12T03:28:08;9.20;;;7.17;;
2850;SDS011;1433;49.976;8.342;2023-08-12T03:30:35;7.27;;;6.57;;
2850;SDS011;1433;49.976;8.342;2023-08-12T03:33:02;8.10;;;7.30;;
2850;SDS011;1433;49.976;8.342;2023-08-12T03:35:30;7.50;;;6.30;;
2850;SDS011;1433;49.976;8.342;2023-08-12T03:37:57;8.80;;;7.37;;
2850;SDS011;1433;49.976;8.342;2023-08-12T03:40:26;8.20;;;7.40;;
2850;SDS011;1433;49.976;8.342;2023-08-12T03:42:54;8.20;;;6.77;;
2850;SDS011;1433;49.976;8.342;2023-08-12T03:45:21;8.57;;;7.70;;
2850;SDS011;1433;49.976;8.342;2023-08-12T03:47:48;10.60;;;7.97;;
2850;SDS011;1433;49.976;8.342;2023-08-12T03:50:15;14.30;;;9.60;;
2850;SDS011;1433;49.976;8.342;2023-08-12T03:52:41;9.90;;;8.57;;
2850;SDS011;1433;49.976;8.342;2023-08-12T03:55:08;8.37;;;7.30;;
2850;SDS011;1433;49.976;8.342;2023-08-12T03:57:34;10.23;;;8.47;;
2850;SDS011;1433;49.976;8.342;2023-08-12T04:00:01;12.53;;;10.23;;
2850;SDS011;1433;49.976;8.342;2023-08-12T04:02:28;9.63;;;7.90;;
2850;SDS011;1433;49.976;8.342;2023-08-12T04:04:54;10.80;;;9.80;;
2850;SDS011;1433;49.976;8.342;2023-08-12T04:07:20;10.23;;;8.70;;
2850;SDS011;1433;49.976;8.342;2023-08-12T04:09:47;9.07;;;8.17;;
2850;SDS011;1433;49.976;8.342;2023-08-12T04:12:13;10.23;;;8.87;;
2850;SDS011;1433;49.976;8.342;2023-08-12T04:14:39;10.70;;;9.03;;
2850;SDS011;1433;49.976;8.342;2023-08-12T04:17:06;8.43;;;7.63;;
2850;SDS011;1433;49.976;8.342;2023-08-12T04:19:33;9.47;;;8.47;;
2850;SDS011;1433;49.976;8.342;2023-08-12T04:21:59;14.00;;;9.50;;
2850;SDS011;1433;49.976;8.342;2023-08-12T04:24:26;15.37;;;8.93;;
2850;SDS011;1433;49.976;8.342;2023-08-12T04:26:52;9.87;;;8.83;;
2850;SDS011;1433;49.976;8.342;2023-08-12T04:29:18;9.50;;;8.60;;
2850;SDS011;1433;49.976;8.342;2023-08-12T04:31:46;10.00;;;9.00;;
2850;SDS011;1433;49.976;8.342;2023-08-12T04:34:12;11.37;;;10.23;;
2850;SDS011;1433;49.976;8.342;2023-08-12T04:36:38;14.40;;;9.67;;
2850;SDS011;1433;49.976;8.342;2023-08-12T04:39:04;11.80;;;10.43;;
2850;SDS011;1433;49.976;8.342;2023-08-12T04:41:31;11.27;;;10.00;;
2850;SDS011;1433;49.976;8.342;2023-08-12T04:44:00;10.00;;;8.40;;
2850;SDS011;1433;49.976;8.342;2023-08-12T04:46:27;14.70;;;9.57;;
2850;SDS011;1433;49.976;8.342;2023-08-12T04:48:54;10.10;;;8.73;;
2850;SDS011;1433;49.976;8.342;2023-08-12T04:51:20;12.63;;;8.67;;
2850;SDS011;1433;49.976;8.342;2023-08-12T04:53:47;9.57;;;8.60;;
2850;SDS011;1433;49.976;8.342;2023-08-12T04:56:14;10.57;;;9.43;;
2850;SDS011;1433;49.976;8.342;2023-08-12T04:58:40;11.83;;;9.67;;
2850;SDS011;1433;49.976;8.342;2023-08-12T05:01:07;13.70;;;10.60;;
2850;SDS011;1433;49.976;8.342;2023-08-12T05:03:33;10.07;;;8.90;;
2850;SDS011;1433;49.976;8.342;2023-08-12T05:06:00;10.90;;;9.17;;
2850;SDS011;1433;49.976;8.342;2023-08-12T05:08:26;13.53;;;10.20;;
2850;SDS011;1433;49.976;8.342;2023-08-12T05:10:52;13.13;;;9.60;;
2850;SDS011;1433;49.976;8.342;2023-08-12T05:13:19;12.20;;;9.07;;
2850;SDS011;1433;49.976;8.342;2023-08-12T05:15:46;13.10;;;9.33;;
2850;SDS011;1433;49.976;8.342;2023-08-12T05:18:13;10.10;;;9.20;;
2850;SDS011;1433;49.976;8.342;2023-08-12T05:20:40;11.00;;;9.27;;
2850;SDS011;1433;49.976;8.342;2023-08-12T05:23:07;10.47;;;9.40;;
2850;SDS011;1433;49.976;8.342;2023-08-12T05:25:34;10.50;;;9.17;;
2850;SDS011;1433;49.976;8.342;2023-08-12T05:28:00;11.27;;;10.10;;
2850;SDS011;1433;49.976;8.342;2023-08-12T05:30:26;11.67;;;9.33;;
2850;SDS011;1433;49.976;8.342;2023-08-12T05:32:53;11.77;;;10.67;;
2850;SDS011;1433;49.976;8.342;2023-08-12T05:35:19;9.63;;;8.67;;
2850;SDS011;1433;49.976;8.342;2023-08-12T05:37:45;11.07;;;9.97;;
2850;SDS011;1433;49.976;8.342;2023-08-12T05:40:11;11.53;;;8.73;;
2850;SDS011;1433;49.976;8.342;2023-08-12T05:42:37;10.07;;;9.07;;
2850;SDS011;1433;49.976;8.342;2023-08-12T05:45:03;10.97;;;9.80;;
2850;SDS011;1433;49.976;8.342;2023-08-12T05:47:30;11.50;;;7.60;;
2850;SDS011;1433;49.976;8.342;2023-08-12T05:49:58;10.93;;;8.80;;
2850;SDS011;1433;49.976;8.342;2023-08-12T05:52:24;10.27;;;9.30;;
2850;SDS011;1433;49.976;8.342;2023-08-12T05:54:50;11.80;;;8.83;;
2850;SDS011;1433;49.976;8.342;2023-08-12T05:57:16;9.80;;;8.43;;
2850;SDS011;1433;49.976;8.342;2023-08-12T05:59:43;9.23;;;8.10;;
2850;SDS011;1433;49.976;8.342;2023-08-12T06:02:09;12.60;;;9.30;;
2850;SDS011;1433;49.976;8.342;2023-08-12T06:04:35;9.67;;;8.87;;
2850;SDS011;1433;49.976;8.342;2023-08-12T06:07:01;10.10;;;8.63;;
2850;SDS011;1433;49.976;8.342;2023-08-12T06:09:27;11.17;;;9.20;;
2850;SDS011;1433;49.976;8.342;2023-08-12T06:11:53;15.00;;;11.57;;
2850;SDS011;1433;49.976;8.342;2023-08-12T06:14:19;9.90;;;8.30;;
2850;SDS011;1433;49.976;8.342;2023-08-12T06:16:46;9.80;;;8.87;;
2850;SDS011;1433;49.976;8.342;2023-08-12T06:19:12;10.90;;;9.47;;
2850;SDS011;1433;49.976;8.342;2023-08-12T06:21:38;11.20;;;9.60;;
2850;SDS011;1433;49.976;8.342;2023-08-12T06:24:04;13.70;;;8.87;;
2850;SDS011;1433;49.976;8.342;2023-08-12T06:26:30;10.40;;;9.30;;
2850;SDS011;1433;49.976;8.342;2023-08-12T06:28:57;12.43;;;10.63;;
2850;SDS011;1433;49.976;8.342;2023-08-12T06:31:23;12.90;;;11.47;;
2850;SDS011;1433;49.976;8.342;2023-08-12T06:33:49;9.97;;;8.87;;
2850;SDS011;1433;49.976;8.342;2023-08-12T06:36:15;13.53;;;8.77;;
2850;SDS011;1433;49.976;8.342;2023-08-12T06:38:41;10.13;;;9.17;;
2850;SDS011;1433;49.976;8.342;2023-08-12T06:41:07;11.47;;;9.77;;
2850;SDS011;1433;49.976;8.342;2023-08-12T06:43:33;12.00;;;9.53;;
2850;SDS011;1433;49.976;8.342;2023-08-12T06:46:00;10.47;;;9.33;;
2850;SDS011;1433;49.976;8.342;2023-08-12T06:48:27;11.53;;;8.97;;
2850;SDS011;1433;49.976;8.342;2023-08-12T06:50:56;10.80;;;9.80;;
2850;SDS011;1433;49.976;8.342;2023-08-12T06:53:22;11.60;;;10.47;;
2850;SDS011;1433;49.976;8.342;2023-08-12T06:55:50;10.10;;;9.13;;
2850;SDS011;1433;49.976;8.342;2023-08-12T06:58:17;11.90;;;9.20;;
2850;SDS011;1433;49.976;8.342;2023-08-12T07:00:43;9.63;;;8.60;;
2850;SDS011;1433;49.976;8.342;2023-08-12T07:03:09;9.53;;;8.53;;
2850;SDS011;1433;49.976;8.342;2023-08-12T07:05:35;11.80;;;8.97;;
2850;SDS011;1433;49.976;8.342;2023-08-12T07:08:02;9.53;;;7.50;;
2850;SDS011;1433;49.976;8.342;2023-08-12T07:10:28;10.57;;;8.83;;
2850;SDS011;1433;49.976;8.342;2023-08-12T07:12:54;9.53;;;8.53;;
2850;SDS011;1433;49.976;8.342;2023-08-12T07:15:20;8.77;;;7.77;;
2850;SDS011;1433;49.976;8.342;2023-08-12T07:17:46;9.63;;;8.73;;
2850;SDS011;1433;49.976;8.342;2023-08-12T07:20:12;15.10;;;9.30;;
2850;SDS011;1433;49.976;8.342;2023-08-12T07:22:38;11.73;;;8.30;;
2850;SDS011;1433;49.976;8.342;2023-08-12T07:25:05;9.00;;;8.10;;
2850;SDS011;1433;49.976;8.342;2023-08-12T07:27:31;13.60;;;11.83;;
2850;SDS011;1433;49.976;8.342;2023-08-12T07:29:57;9.17;;;8.20;;
2850;SDS011;1433;49.976;8.342;2023-08-12T07:32:24;9.97;;;9.03;;
2850;SDS011;1433;49.976;8.342;2023-08-12T07:34:50;14.80;;;10.37;;
2850;SDS011;1433;49.976;8.342;2023-08-12T07:37:16;19.37;;;12.67;;
2850;SDS011;1433;49.976;8.342;2023-08-12T07:39:42;11.70;;;9.73;;
2850;SDS011;1433;49.976;8.342;2023-08-12T07:42:08;9.63;;;8.80;;
2850;SDS011;1433;49.976;8.342;2023-08-12T07:44:34;8.20;;;7.43;;
2850;SDS011;1433;49.976;8.342;2023-08-12T07:47:00;12.73;;;7.93;;
2850;SDS011;1433;49.976;8.342;2023-08-12T07:49:26;12.80;;;8.03;;
2850;SDS011;1433;49.976;8.342;2023-08-12T07:51:52;14.27;;;8.83;;
2850;SDS011;1433;49.976;8.342;2023-08-12T07:54:18;9.97;;;8.17;;
2850;SDS011;1433;49.976;8.342;2023-08-12T07:56:45;9.30;;;8.30;;
2850;SDS011;1433;49.976;8.342;2023-08-12T07:59:11;11.80;;;9.83;;
2850;SDS011;1433;49.976;8.342;2023-08-12T08:01:39;10.33;;;7.87;;
2850;SDS011;1433;49.976;8.342;2023-08-12T08:04:05;7.57;;;6.70;;
2850;SDS011;1433;49.976;8.342;2023-08-12T08:06:31;7.93;;;6.97;;
2850;SDS011;1433;49.976;8.342;2023-08-12T08:08:58;9.83;;;8.07;;
2850;SDS011;1433;49.976;8.342;2023-08-12T08:11:24;14.60;;;12.70;;
2850;SDS011;1433;49.976;8.342;2023-08-12T08:13:50;11.27;;;8.80;;
2850;SDS011;1433;49.976;8.342;2023-08-12T08:16:17;8.07;;;7.07;;
2850;SDS011;1433;49.976;8.342;2023-08-12T08:18:43;7.23;;;6.47;;
2850;SDS011;1433;49.976;8.342;2023-08-12T08:21:09;8.57;;;6.67;;
2850;SDS011;1433;49.976;8.342;2023-08-12T08:23:35;8.13;;;7.17;;
2850;SDS011;1433;49.976;8.342;2023-08-12T08:26:01;7.73;;;6.50;;
2850;SDS011;1433;49.976;8.342;2023-08-12T08:28:28;11.50;;;8.10;;
2850;SDS011;1433;49.976;8.342;2023-08-12T08:30:54;8.10;;;7.30;;
2850;SDS011;1433;49.976;8.342;2023-08-12T08:33:20;8.63;;;6.80;;
2850;SDS011;1433;49.976;8.342;2023-08-12T08:35:46;10.87;;;6.27;;
2850;SDS011;1433;49.976;8.342;2023-08-12T08:38:12;6.87;;;6.17;;
2850;SDS011;1433;49.976;8.342;2023-08-12T08:40:38;8.30;;;6.20;;
2850;SDS011;1433;49.976;8.342;2023-08-12T08:43:05;6.83;;;5.90;;
2850;SDS011;1433;49.976;8.342;2023-08-12T08:45:33;6.80;;;6.13;;
2850;SDS011;1433;49.976;8.342;2023-08-12T08:48:00;9.73;;;6.60;;
2850;SDS011;1433;49.976;8.342;2023-08-12T08:50:28;8.60;;;5.73;;
2850;SDS011;1433;49.976;8.342;2023-08-12T08:52:56;6.90;;;6.20;;
2850;SDS011;1433;49.976;8.342;2023-08-12T08:55:22;7.80;;;6.27;;
2850;SDS011;1433;49.976;8.342;2023-08-12T08:57:49;8.97;;;5.70;;
2850;SDS011;1433;49.976;8.342;2023-08-12T09:00:16;7.43;;;6.73;;
2850;SDS011;1433;49.976;8.342;2023-08-12T09:02:45;8.10;;;7.17;;
2850;SDS011;1433;49.976;8.342;2023-08-12T09:05:12;7.43;;;6.33;;
2850;SDS011;1433;49.976;8.342;2023-08-12T09:07:40;6.60;;;5.97;;
2850;SDS011;1433;49.976;8.342;2023-08-12T09:10:08;7.40;;;6.57;;
2850;SDS011;1433;49.976;8.342;2023-08-12T09:12:40;10.83;;;6.30;;
2850;SDS011;1433;49.976;8.342;2023-08-12T09:15:07;10.43;;;6.57;;
2850;SDS011;1433;49.976;8.342;2023-08-12T09:17:33;12.13;;;9.27;;
2850;SDS011;1433;49.976;8.342;2023-08-12T09:19:59;19.33;;;15.07;;
2850;SDS011;1433;49.976;8.342;2023-08-12T09:22:26;6.90;;;6.13;;
2850;SDS011;1433;49.976;8.342;2023-08-12T09:24:58;5.50;;;5.00;;
2850;SDS011;1433;49.976;8.342;2023-08-12T09:27:24;6.03;;;5.00;;
2850;SDS011;1433;49.976;8.342;2023-08-12T09:29:51;9.63;;;5.27;;
2850;SDS011;1433;49.976;8.342;2023-08-12T09:32:20;5.63;;;5.13;;
2850;SDS011;1433;49.976;8.342;2023-08-12T09:34:49;7.60;;;4.70;;
2850;SDS011;1433;49.976;8.342;2023-08-12T09:37:17;4.67;;;4.17;;
2850;SDS011;1433;49.976;8.342;2023-08-12T09:39:46;4.00;;;3.50;;
2850;SDS011;1433;49.976;8.342;2023-08-12T09:42:13;4.60;;;4.20;;
2850;SDS011;1433;49.976;8.342;2023-08-12T09:44:40;3.43;;;3.13;;
2850;SDS011;1433;49.976;8.342;2023-08-12T09:47:07;4.80;;;4.33;;
2850;SDS011;1433;49.976;8.342;2023-08-12T09:49:34;4.47;;;3.50;;
2850;SDS011;1433;49.976;8.342;2023-08-12T09:52:04;4.40;;;3.70;;
2850;SDS011;1433;49.976;8.342;2023-08-12T09:54:31;5.83;;;3.70;;
2850;SDS011;1433;49.976;8.342;2023-08-12T09:56:58;4.37;;;4.07;;
2850;SDS011;1433;49.976;8.342;2023-08-12T09:59:27;3.30;;;3.10;;
2850;SDS011;1433;49.976;8.342;2023-08-12T10:02:03;4.40;;;3.70;;
2850;SDS011;1433;49.976;8.342;2023-08-12T10:04:33;5.03;;;4.50;;
2850;SDS011;1433;49.976;8.342;2023-08-12T10:07:07;5.93;;;5.43;;
2850;SDS011;1433;49.976;8.342;2023-08-12T10:09:35;5.73;;;5.03;;
2850;SDS011;1433;49.976;8.342;2023-08-12T10:12:03;7.07;;;5.87;;
2850;SDS011;1433;49.976;8.342;2023-08-12T10:14:31;9.37;;;6.00;;
2850;SDS011;1433;49.976;8.342;2023-08-12T10:16:57;5.37;;;4.87;;
2850;SDS011;1433;49.976;8.342;2023-08-12T10:19:25;6.33;;;4.27;;
2850;SDS011;1433;49.976;8.342;2023-08-12T10:21:54;4.93;;;4.43;;
2850;SDS011;1433;49.976;8.342;2023-08-12T10:24:21;5.27;;;4.77;;
2850;SDS011;1433;49.976;8.342;2023-08-12T10:26:48;5.30;;;4.70;;
2850;SDS011;1433;49.976;8.342;2023-08-12T10:29:16;0.97;;;0.70;;
2850;SDS011;1433;49.976;8.342;2023-08-12T10:31:42;1.00;;;0.83;;
2850;SDS011;1433;49.976;8.342;2023-08-12T10:34:20;1.00;;;0.80;;
2850;SDS011;1433;49.976;8.342;2023-08-12T10:36:47;1.10;;;1.00;;
2850;SDS011;1433;49.976;8.342;2023-08-12T10:39:16;1.83;;;1.00;;
2850;SDS011;1433;49.976;8.342;2023-08-12T10:41:49;1.00;;;0.70;;
2850;SDS011;1433;49.976;8.342;2023-08-12T10:44:12;1.00;;;0.70;;
2850;SDS011;1433;49.976;8.342;2023-08-12T10:46:38;1.10;;;0.70;;
2850;SDS011;1433;49.976;8.342;2023-08-12T10:49:08;0.90;;;0.60;;
2850;SDS011;1433;49.976;8.342;2023-08-12T10:59:54;1.00;;;0.70;;
2850;SDS011;1433;49.976;8.342;2023-08-12T11:02:28;1.00;;;0.70;;
2850;SDS011;1433;49.976;8.342;2023-08-12T11:05:02;0.90;;;0.70;;
2850;SDS011;1433;49.976;8.342;2023-08-12T11:10:31;0.97;;;0.70;;
2850;SDS011;1433;49.976;8.342;2023-08-12T11:12:59;1.00;;;0.70;;
2850;SDS011;1433;49.976;8.342;2023-08-12T11:15:33;1.00;;;0.70;;
2850;SDS011;1433;49.976;8.342;2023-08-12T11:18:03;1.00;;;0.80;;
2850;SDS011;1433;49.976;8.342;2023-08-12T11:20:31;1.00;;;0.70;;
2850;SDS011;1433;49.976;8.342;2023-08-12T11:22:59;1.00;;;0.70;;
2850;SDS011;1433;49.976;8.342;2023-08-12T11:25:28;1.00;;;0.70;;
2850;SDS011;1433;49.976;8.342;2023-08-12T11:27:55;1.00;;;0.70;;
2850;SDS011;1433;49.976;8.342;2023-08-12T11:30:22;1.00;;;0.70;;
2850;SDS011;1433;49.976;8.342;2023-08-12T11:32:49;1.00;;;0.70;;
2850;SDS011;1433;49.976;8.342;2023-08-12T11:35:17;1.00;;;0.70;;
2850;SDS011;1433;49.976;8.342;2023-08-12T11:37:49;1.00;;;0.70;;
2850;SDS011;1433;49.976;8.342;2023-08-12T11:40:14;1.00;;;0.70;;
2850;SDS011;1433;49.976;8.342;2023-08-12T11:42:43;1.00;;;0.70;;
2850;SDS011;1433;49.976;8.342;2023-08-12T11:45:12;0.90;;;0.70;;
2850;SDS011;1433;49.976;8.342;2023-08-12T11:47:41;1.00;;;0.70;;
2850;SDS011;1433;49.976;8.342;2023-08-12T11:50:08;0.90;;;0.67;;
2850;SDS011;1433;49.976;8.342;2023-08-12T11:52:36;1.00;;;0.70;;
2850;SDS011;1433;49.976;8.342;2023-08-12T11:55:03;1.00;;;0.70;;
2850;SDS011;1433;49.976;8.342;2023-08-12T11:57:31;1.00;;;0.63;;
2850;SDS011;1433;49.976;8.342;2023-08-12T12:00:04;0.90;;;0.60;;
2850;SDS011;1433;49.976;8.342;2023-08-12T12:02:37;1.00;;;0.70;;
2850;SDS011;1433;49.976;8.342;2023-08-12T12:05:13;1.00;;;0.70;;
2850;SDS011;1433;49.976;8.342;2023-08-12T12:07:37;0.93;;;0.70;;
2850;SDS011;1433;49.976;8.342;2023-08-12T12:10:07;1.00;;;0.70;;
2850;SDS011;1433;49.976;8.342;2023-08-12T12:12:34;0.90;;;0.60;;
2850;SDS011;1433;49.976;8.342;2023-08-12T12:15:03;0.93;;;0.63;;
2850;SDS011;1433;49.976;8.342;2023-08-12T12:17:30;1.00;;;0.60;;
2850;SDS011;1433;49.976;8.342;2023-08-12T12:19:57;1.00;;;0.70;;
2850;SDS011;1433;49.976;8.342;2023-08-12T12:22:31;1.00;;;0.60;;
2850;SDS011;1433;49.976;8.342;2023-08-12T12:24:59;0.93;;;0.67;;
2850;SDS011;1433;49.976;8.342;2023-08-12T12:27:26;1.00;;;0.70;;
2850;SDS011;1433;49.976;8.342;2023-08-12T12:29:53;1.00;;;0.60;;
2850;SDS011;1433;49.976;8.342;2023-08-12T12:32:20;0.90;;;0.60;;
2850;SDS011;1433;49.976;8.342;2023-08-12T12:34:46;1.70;;;1.60;;
2850;SDS011;1433;49.976;8.342;2023-08-12T12:37:13;2.13;;;0.80;;
2850;SDS011;1433;49.976;8.342;2023-08-12T12:39:40;1.00;;;0.70;;
2850;SDS011;1433;49.976;8.342;2023-08-12T12:42:06;1.00;;;0.70;;
2850;SDS011;1433;49.976;8.342;2023-08-12T12:44:33;1.00;;;0.70;;
2850;SDS011;1433;49.976;8.342;2023-08-12T12:46:59;0.90;;;0.60;;
2850;SDS011;1433;49.976;8.342;2023-08-12T12:49:25;1.00;;;0.70;;
2850;SDS011;1433;49.976;8.342;2023-08-12T12:51:51;1.87;;;1.77;;
2850;SDS011;1433;49.976;8.342;2023-08-12T12:54:18;0.90;;;0.70;;
2850;SDS011;1433;49.976;8.342;2023-08-12T12:56:44;1.00;;;0.70;;
2850;SDS011;1433;49.976;8.342;2023-08-12T12:59:10;1.00;;;0.70;;
2850;SDS011;1433;49.976;8.342;2023-08-12T13:01:36;2.43;;;2.23;;
2850;SDS011;1433;49.976;8.342;2023-08-12T13:04:03;1.90;;;1.40;;
2850;SDS011;1433;49.976;8.342;2023-08-12T13:06:29;3.97;;;2.00;;
2850;SDS011;1433;49.976;8.342;2023-08-12T13:08:55;5.20;;;2.10;;
2850;SDS011;1433;49.976;8.342;2023-08-12T13:11:21;2.73;;;1.90;;
2850;SDS011;1433;49.976;8.342;2023-08-12T13:13:47;2.20;;;1.97;;
2850;SDS011;1433;49.976;8.342;2023-08-12T13:16:13;2.27;;;2.07;;
2850;SDS011;1433;49.976;8.342;2023-08-12T13:18:40;3.50;;;1.77;;
2850;SDS011;1433;49.976;8.342;2023-08-12T13:21:06;1.70;;;1.60;;
2850;SDS011;1433;49.976;8.342;2023-08-12T13:23:34;2.10;;;1.90;;
2850;SDS011;1433;49.976;8.342;2023-08-12T13:26:02;2.03;;;1.67;;
2850;SDS011;1433;49.976;8.342;2023-08-12T13:28:29;3.50;;;2.40;;
2850;SDS011;1433;49.976;8.342;2023-08-12T13:30:55;2.13;;;1.93;;
2850;SDS011;1433;49.976;8.342;2023-08-12T13:33:23;1.63;;;1.53;;
2850;SDS011;1433;49.976;8.342;2023-08-12T13:35:52;3.10;;;1.90;;
2850;SDS011;1433;49.976;8.342;2023-08-12T13:38:18;2.37;;;2.03;;
2850;SDS011;1433;49.976;8.342;2023-08-12T13:40:44;2.60;;;2.00;;
2850;SDS011;1433;49.976;8.342;2023-08-12T13:43:10;2.00;;;1.80;;
2850;SDS011;1433;49.976;8.342;2023-08-12T13:45:37;2.17;;;1.97;;
2850;SDS011;1433;49.976;8.342;2023-08-12T13:48:03;1.60;;;1.50;;
2850;SDS011;1433;49.976;8.342;2023-08-12T13:50:30;2.27;;;1.50;;
2850;SDS011;1433;49.976;8.342;2023-08-12T13:52:58;1.80;;;1.70;;
2850;SDS011;1433;49.976;8.342;2023-08-12T13:55:25;5.33;;;1.80;;
2850;SDS011;1433;49.976;8.342;2023-08-12T13:57:51;1.77;;;1.67;;
2850;SDS011;1433;49.976;8.342;2023-08-12T14:00:19;2.63;;;1.97;;
2850;SDS011;1433;49.976;8.342;2023-08-12T14:02:45;2.20;;;1.90;;
2850;SDS011;1433;49.976;8.342;2023-08-12T14:05:13;1.97;;;1.70;;
2850;SDS011;1433;49.976;8.342;2023-08-12T14:07:40;2.40;;;1.90;;
2850;SDS011;1433;49.976;8.342;2023-08-12T14:10:07;2.83;;;2.60;;
2850;SDS011;1433;49.976;8.342;2023-08-12T14:12:34;1.77;;;1.53;;
2850;SDS011;1433;49.976;8.342;2023-08-12T14:15:00;2.60;;;2.40;;
2850;SDS011;1433;49.976;8.342;2023-08-12T14:17:27;2.10;;;1.57;;
2850;SDS011;1433;49.976;8.342;2023-08-12T14:19:53;1.80;;;1.60;;
2850;SDS011;1433;49.976;8.342;2023-08-12T14:22:20;2.30;;;1.80;;
2850;SDS011;1433;49.976;8.342;2023-08-12T14:24:46;1.93;;;1.83;;
2850;SDS011;1433;49.976;8.342;2023-08-12T14:27:18;1.73;;;1.53;;
2850;SDS011;1433;49.976;8.342;2023-08-12T14:29:45;1.57;;;1.47;;
2850;SDS011;1433;49.976;8.342;2023-08-12T14:32:11;3.10;;;1.93;;
2850;SDS011;1433;49.976;8.342;2023-08-12T14:34:37;2.80;;;2.57;;
2850;SDS011;1433;49.976;8.342;2023-08-12T14:37:04;3.40;;;1.50;;
2850;SDS011;1433;49.976;8.342;2023-08-12T14:39:30;2.20;;;1.93;;
2850;SDS011;1433;49.976;8.342;2023-08-12T14:41:56;2.33;;;2.23;;
2850;SDS011;1433;49.976;8.342;2023-08-12T14:44:22;2.40;;;2.20;;
2850;SDS011;1433;49.976;8.342;2023-08-12T14:46:49;2.53;;;2.33;;
2850;SDS011;1433;49.976;8.342;2023-08-12T14:49:15;2.23;;;2.00;;
2850;SDS011;1433;49.976;8.342;2023-08-12T14:51:41;3.80;;;2.23;;
2850;SDS011;1433;49.976;8.342;2023-08-12T14:54:07;5.13;;;2.10;;
2850;SDS011;1433;49.976;8.342;2023-08-12T14:56:34;2.17;;;1.97;;
2850;SDS011;1433;49.976;8.342;2023-08-12T14:59:00;2.77;;;2.03;;
2850;SDS011;1433;49.976;8.342;2023-08-12T15:01:26;3.23;;;2.30;;
2850;SDS011;1433;49.976;8.342;2023-08-12T15:03:54;6.50;;;2.87;;
2850;SDS011;1433;49.976;8.342;2023-08-12T15:06:21;4.47;;;2.27;;
2850;SDS011;1433;49.976;8.342;2023-08-12T15:08:48;3.10;;;2.30;;
2850;SDS011;1433;49.976;8.342;2023-08-12T15:11:14;2.87;;;2.67;;
2850;SDS011;1433;49.976;8.342;2023-08-12T15:13:41;3.70;;;2.70;;
2850;SDS011;1433;49.976;8.342;2023-08-12T15:16:07;2.70;;;2.47;;
2850;SDS011;1433;49.976;8.342;2023-08-12T15:18:34;3.53;;;2.67;;
2850;SDS011;1433;49.976;8.342;2023-08-12T15:21:00;2.67;;;2.47;;
2850;SDS011;1433;49.976;8.342;2023-08-12T15:23:26;3.13;;;2.50;;
2850;SDS011;1433;49.976;8.342;2023-08-12T15:25:52;2.23;;;2.00;;
2850;SDS011;1433;49.976;8.342;2023-08-12T15:28:18;2.23;;;2.03;;